sensor_id;sensor_type;location;lat;lon;timestamp;temperature;humidity
41876;DHT22;27555;50.808;4.402;2023-04-01T00:00:16;10.70;99.90
41876;DHT22;27555;50.808;4.402;2023-04-01T00:02:42;11.00;99.90
41876;DHT22;27555;50.808;4.402;2023-04-01T00:05:08;11.20;99.90
41876;DHT22;27555;50.808;4.402;2023-04-01T00:07:36;11.40;99.90
41876;DHT22;27555;50.808;4.402;2023-04-01T00:10:03;11.20;99.90
41876;DHT22;27555;50.808;4.402;2023-04-01T00:12:28;10.90;99.90
41876;DHT22;27555;50.808;4.402;2023-04-01T00:14:55;11.00;99.90
41876;DHT22;27555;50.808;4.402;2023-04-01T00:17:20;11.10;99.90
41876;DHT22;27555;50.808;4.402;2023-04-01T00:19:46;11.00;99.90
41876;DHT22;27555;50.808;4.402;2023-04-01T00:22:12;10.80;99.90
41876;DHT22;27555;50.808;4.402;2023-04-01T00:24:38;10.60;99.90
41876;DHT22;27555;50.808;4.402;2023-04-01T00:27:04;10.70;99.90
41876;DHT22;27555;50.808;4.402;2023-04-01T00:29:30;10.80;99.90
41876;DHT22;27555;50.808;4.402;2023-04-01T00:31:57;10.80;99.90
41876;DHT22;27555;50.808;4.402;2023-04-01T00:34:23;10.80;99.90
41876;DHT22;27555;50.808;4.402;2023-04-01T00:36:50;11.00;99.90
41876;DHT22;27555;50.808;4.402;2023-04-01T00:39:16;11.00;99.90
41876;DHT22;27555;50.808;4.402;2023-04-01T00:41:41;10.90;99.90
41876;DHT22;27555;50.808;4.402;2023-04-01T00:44:28;11.00;99.90
41876;DHT22;27555;50.808;4.402;2023-04-01T00:46:55;10.90;99.90
41876;DHT22;27555;50.808;4.402;2023-04-01T00:49:23;11.10;99.90
41876;DHT22;27555;50.808;4.402;2023-04-01T00:51:53;11.10;99.90
41876;DHT22;27555;50.808;4.402;2023-04-01T00:54:21;11.20;99.90
41876;DHT22;27555;50.808;4.402;2023-04-01T00:57:07;11.10;99.90
41876;DHT22;27555;50.808;4.402;2023-04-01T00:59:37;11.00;99.90
41876;DHT22;27555;50.808;4.402;2023-04-01T01:02:05;10.70;99.90
41876;DHT22;27555;50.808;4.402;2023-04-01T01:04:34;10.90;99.90
41876;DHT22;27555;50.808;4.402;2023-04-01T01:10:34;10.90;99.90
41876;DHT22;27555;50.808;4.402;2023-04-01T01:13:22;11.00;99.90
41876;DHT22;27555;50.808;4.402;2023-04-01T01:16:06;11.00;99.90
41876;DHT22;27555;50.808;4.402;2023-04-01T01:18:48;11.10;99.90
41876;DHT22;27555;50.808;4.402;2023-04-01T01:30:06;10.70;99.90
41876;DHT22;27555;50.808;4.402;2023-04-01T01:35:38;10.90;99.90
41876;DHT22;27555;50.808;4.402;2023-04-01T01:38:10;10.90;99.90
41876;DHT22;27555;50.808;4.402;2023-04-01T01:40:39;10.90;99.90
41876;DHT22;27555;50.808;4.402;2023-04-01T01:43:10;11.20;99.90
41876;DHT22;27555;50.808;4.402;2023-04-01T01:45:37;11.30;99.90
41876;DHT22;27555;50.808;4.402;2023-04-01T01:48:07;11.20;99.90
41876;DHT22;27555;50.808;4.402;2023-04-01T01:50:34;11.10;99.90
41876;DHT22;27555;50.808;4.402;2023-04-01T01:53:09;11.00;99.90
41876;DHT22;27555;50.808;4.402;2023-04-01T01:55:38;11.20;99.90
41876;DHT22;27555;50.808;4.402;2023-04-01T01:58:22;11.30;99.90
41876;DHT22;27555;50.808;4.402;2023-04-01T02:01:02;11.00;99.90
41876;DHT22;27555;50.808;4.402;2023-04-01T02:03:33;10.70;99.90
41876;DHT22;27555;50.808;4.402;2023-04-01T02:06:01;10.70;99.90
41876;DHT22;27555;50.808;4.402;2023-04-01T02:11:00;10.70;99.90
41876;DHT22;27555;50.808;4.402;2023-04-01T02:13:31;10.80;99.90
41876;DHT22;27555;50.808;4.402;2023-04-01T02:16:06;11.00;99.90
41876;DHT22;27555;50.808;4.402;2023-04-01T02:18:36;11.10;99.90
41876;DHT22;27555;50.808;4.402;2023-04-01T02:21:05;11.10;99.90
41876;DHT22;27555;50.808;4.402;2023-04-01T02:23:33;11.20;99.90
41876;DHT22;27555;50.808;4.402;2023-04-01T02:26:00;11.30;99.90
41876;DHT22;27555;50.808;4.402;2023-04-01T02:28:27;11.00;99.90
41876;DHT22;27555;50.808;4.402;2023-04-01T02:30:53;10.90;99.90
41876;DHT22;27555;50.808;4.402;2023-04-01T02:33:19;11.00;99.90
41876;DHT22;27555;50.808;4.402;2023-04-01T02:35:46;10.80;99.90
41876;DHT22;27555;50.808;4.402;2023-04-01T02:38:13;10.70;99.90
41876;DHT22;27555;50.808;4.402;2023-04-01T02:40:52;10.60;99.90
41876;DHT22;27555;50.808;4.402;2023-04-01T02:43:21;10.90;99.90
41876;DHT22;27555;50.808;4.402;2023-04-01T02:45:47;11.10;99.90
41876;DHT22;27555;50.808;4.402;2023-04-01T02:48:12;10.90;99.90
41876;DHT22;27555;50.808;4.402;2023-04-01T02:50:39;11.10;99.90
41876;DHT22;27555;50.808;4.402;2023-04-01T02:53:05;10.90;99.90
41876;DHT22;27555;50.808;4.402;2023-04-01T02:55:32;10.70;99.90
41876;DHT22;27555;50.808;4.402;2023-04-01T02:57:57;10.80;99.90
41876;DHT22;27555;50.808;4.402;2023-04-01T03:00:23;10.90;99.90
41876;DHT22;27555;50.808;4.402;2023-04-01T03:02:48;10.90;99.90
41876;DHT22;27555;50.808;4.402;2023-04-01T03:05:14;10.90;99.90
41876;DHT22;27555;50.808;4.402;2023-04-01T03:07:40;10.80;99.90
41876;DHT22;27555;50.808;4.402;2023-04-01T03:10:06;10.90;99.90
41876;DHT22;27555;50.808;4.402;2023-04-01T03:12:32;11.00;99.90
41876;DHT22;27555;50.808;4.402;2023-04-01T03:14:58;10.90;99.90
41876;DHT22;27555;50.808;4.402;2023-04-01T03:17:23;10.80;99.90
41876;DHT22;27555;50.808;4.402;2023-04-01T03:19:49;10.60;99.90
41876;DHT22;27555;50.808;4.402;2023-04-01T03:22:14;10.60;99.90
41876;DHT22;27555;50.808;4.402;2023-04-01T03:24:40;10.60;99.90
41876;DHT22;27555;50.808;4.402;2023-04-01T03:27:06;10.70;99.90
41876;DHT22;27555;50.808;4.402;2023-04-01T03:29:31;10.40;99.90
41876;DHT22;27555;50.808;4.402;2023-04-01T03:31:57;10.20;99.90
41876;DHT22;27555;50.808;4.402;2023-04-01T03:34:24;10.20;99.90
41876;DHT22;27555;50.808;4.402;2023-04-01T03:36:51;10.20;99.90
41876;DHT22;27555;50.808;4.402;2023-04-01T03:39:16;10.30;99.90
41876;DHT22;27555;50.808;4.402;2023-04-01T03:41:44;10.20;99.90
41876;DHT22;27555;50.808;4.402;2023-04-01T03:44:10;10.00;99.90
41876;DHT22;27555;50.808;4.402;2023-04-01T03:46:36;10.10;99.90
41876;DHT22;27555;50.808;4.402;2023-04-01T03:49:02;10.30;99.90
41876;DHT22;27555;50.808;4.402;2023-04-01T03:51:27;10.50;99.90
41876;DHT22;27555;50.808;4.402;2023-04-01T03:53:53;10.50;99.90
41876;DHT22;27555;50.808;4.402;2023-04-01T03:56:19;10.50;99.90
41876;DHT22;27555;50.808;4.402;2023-04-01T03:58:44;10.50;99.90
41876;DHT22;27555;50.808;4.402;2023-04-01T04:01:15;10.10;99.90
41876;DHT22;27555;50.808;4.402;2023-04-01T04:03:40;10.20;99.90
41876;DHT22;27555;50.808;4.402;2023-04-01T04:06:11;10.30;99.90
41876;DHT22;27555;50.808;4.402;2023-04-01T04:08:36;10.30;99.90
41876;DHT22;27555;50.808;4.402;2023-04-01T04:11:02;10.50;99.90
41876;DHT22;27555;50.808;4.402;2023-04-01T04:13:27;10.60;99.90
41876;DHT22;27555;50.808;4.402;2023-04-01T04:15:53;10.40;99.90
41876;DHT22;27555;50.808;4.402;2023-04-01T04:18:18;10.60;99.90
41876;DHT22;27555;50.808;4.402;2023-04-01T04:20:47;10.80;99.90
41876;DHT22;27555;50.808;4.402;2023-04-01T04:23:15;10.70;99.90
41876;DHT22;27555;50.808;4.402;2023-04-01T04:25:41;10.60;99.90
41876;DHT22;27555;50.808;4.402;2023-04-01T04:28:07;10.60;99.90
41876;DHT22;27555;50.808;4.402;2023-04-01T04:30:32;10.80;99.90
41876;DHT22;27555;50.808;4.402;2023-04-01T04:32:58;10.80;99.90
41876;DHT22;27555;50.808;4.402;2023-04-01T04:35:23;10.90;99.90
41876;DHT22;27555;50.808;4.402;2023-04-01T04:37:49;10.80;99.90
41876;DHT22;27555;50.808;4.402;2023-04-01T04:40:15;10.30;99.90
41876;DHT22;27555;50.808;4.402;2023-04-01T04:42:40;10.40;99.90
41876;DHT22;27555;50.808;4.402;2023-04-01T04:45:06;10.40;99.90
41876;DHT22;27555;50.808;4.402;2023-04-01T04:47:31;10.30;99.90
41876;DHT22;27555;50.808;4.402;2023-04-01T04:49:57;10.50;99.90
41876;DHT22;27555;50.808;4.402;2023-04-01T04:52:22;10.30;99.90
41876;DHT22;27555;50.808;4.402;2023-04-01T04:54:48;10.40;99.90
41876;DHT22;27555;50.808;4.402;2023-04-01T04:57:14;10.30;99.90
41876;DHT22;27555;50.808;4.402;2023-04-01T04:59:39;10.40;99.90
41876;DHT22;27555;50.808;4.402;2023-04-01T05:02:05;10.40;99.90
41876;DHT22;27555;50.808;4.402;2023-04-01T05:04:34;10.60;99.90
41876;DHT22;27555;50.808;4.402;2023-04-01T05:07:00;10.70;99.90
41876;DHT22;27555;50.808;4.402;2023-04-01T05:09:26;10.70;99.90
41876;DHT22;27555;50.808;4.402;2023-04-01T05:11:51;10.40;99.90
41876;DHT22;27555;50.808;4.402;2023-04-01T05:14:17;10.40;99.90
41876;DHT22;27555;50.808;4.402;2023-04-01T05:16:43;10.70;99.90
41876;DHT22;27555;50.808;4.402;2023-04-01T05:19:09;10.70;99.90
41876;DHT22;27555;50.808;4.402;2023-04-01T05:21:34;10.30;99.90
41876;DHT22;27555;50.808;4.402;2023-04-01T05:24:00;10.30;99.90
41876;DHT22;27555;50.808;4.402;2023-04-01T05:26:25;10.20;99.90
41876;DHT22;27555;50.808;4.402;2023-04-01T05:28:51;10.10;99.90
41876;DHT22;27555;50.808;4.402;2023-04-01T05:31:16;10.40;99.90
41876;DHT22;27555;50.808;4.402;2023-04-01T05:33:42;10.50;99.90
41876;DHT22;27555;50.808;4.402;2023-04-01T05:36:11;10.60;99.90
41876;DHT22;27555;50.808;4.402;2023-04-01T05:38:38;10.40;99.90
41876;DHT22;27555;50.808;4.402;2023-04-01T05:41:04;10.50;99.90
41876;DHT22;27555;50.808;4.402;2023-04-01T05:43:29;10.60;99.90
41876;DHT22;27555;50.808;4.402;2023-04-01T05:45:56;10.40;99.90
41876;DHT22;27555;50.808;4.402;2023-04-01T05:48:21;10.40;99.90
41876;DHT22;27555;50.808;4.402;2023-04-01T05:50:47;10.60;99.90
41876;DHT22;27555;50.808;4.402;2023-04-01T05:53:12;10.50;99.90
41876;DHT22;27555;50.808;4.402;2023-04-01T05:55:38;10.20;99.90
41876;DHT22;27555;50.808;4.402;2023-04-01T05:58:04;10.50;99.90
41876;DHT22;27555;50.808;4.402;2023-04-01T06:00:30;10.10;99.90
41876;DHT22;27555;50.808;4.402;2023-04-01T06:02:58;10.00;99.90
41876;DHT22;27555;50.808;4.402;2023-04-01T06:05:29;10.10;99.90
41876;DHT22;27555;50.808;4.402;2023-04-01T06:08:08;10.00;99.90
41876;DHT22;27555;50.808;4.402;2023-04-01T06:13:50;10.20;99.90
41876;DHT22;27555;50.808;4.402;2023-04-01T06:16:43;10.30;99.90
41876;DHT22;27555;50.808;4.402;2023-04-01T06:21:54;9.90;99.90
41876;DHT22;27555;50.808;4.402;2023-04-01T06:38:40;10.20;99.90
41876;DHT22;27555;50.808;4.402;2023-04-01T06:42:13;10.20;99.90
41876;DHT22;27555;50.808;4.402;2023-04-01T06:46:59;10.60;99.90
41876;DHT22;27555;50.808;4.402;2023-04-01T06:49:48;10.80;99.90
41876;DHT22;27555;50.808;4.402;2023-04-01T06:55:30;10.30;99.90
41876;DHT22;27555;50.808;4.402;2023-04-01T06:57:59;10.50;99.90
41876;DHT22;27555;50.808;4.402;2023-04-01T07:05:42;10.60;99.90
41876;DHT22;27555;50.808;4.402;2023-04-01T07:08:20;10.70;99.90
41876;DHT22;27555;50.808;4.402;2023-04-01T07:10:54;10.70;99.90
41876;DHT22;27555;50.808;4.402;2023-04-01T07:13:36;10.50;99.90
41876;DHT22;27555;50.808;4.402;2023-04-01T07:16:12;10.60;99.90
41876;DHT22;27555;50.808;4.402;2023-04-01T07:21:44;10.80;99.90
41876;DHT22;27555;50.808;4.402;2023-04-01T07:24:25;10.60;99.90
41876;DHT22;27555;50.808;4.402;2023-04-01T07:26:56;10.60;99.90
41876;DHT22;27555;50.808;4.402;2023-04-01T07:29:22;10.80;99.90
41876;DHT22;27555;50.808;4.402;2023-04-01T07:37:12;10.70;99.90
41876;DHT22;27555;50.808;4.402;2023-04-01T07:39:43;11.00;99.90
41876;DHT22;27555;50.808;4.402;2023-04-01T07:45:44;11.00;99.90
41876;DHT22;27555;50.808;4.402;2023-04-01T07:59:09;10.30;99.90
41876;DHT22;27555;50.808;4.402;2023-04-01T08:02:28;10.40;99.90
41876;DHT22;27555;50.808;4.402;2023-04-01T08:07:17;10.60;99.90
41876;DHT22;27555;50.808;4.402;2023-04-01T08:12:21;11.10;99.90
41876;DHT22;27555;50.808;4.402;2023-04-01T08:25:44;11.20;99.90
41876;DHT22;27555;50.808;4.402;2023-04-01T08:28:27;11.10;99.90
41876;DHT22;27555;50.808;4.402;2023-04-01T08:33:33;10.90;99.90
41876;DHT22;27555;50.808;4.402;2023-04-01T08:36:05;10.90;99.90
41876;DHT22;27555;50.808;4.402;2023-04-01T08:38:38;11.20;99.90
41876;DHT22;27555;50.808;4.402;2023-04-01T08:49:19;10.70;99.90
41876;DHT22;27555;50.808;4.402;2023-04-01T08:52:22;10.50;99.90
41876;DHT22;27555;50.808;4.402;2023-04-01T08:58:17;11.00;99.90
41876;DHT22;27555;50.808;4.402;2023-04-01T09:00:57;11.40;99.90
41876;DHT22;27555;50.808;4.402;2023-04-01T09:25:05;11.40;99.90
41876;DHT22;27555;50.808;4.402;2023-04-01T09:30:45;11.50;99.90
41876;DHT22;27555;50.808;4.402;2023-04-01T09:36:17;11.60;99.90
41876;DHT22;27555;50.808;4.402;2023-04-01T09:38:52;11.60;99.90
41876;DHT22;27555;50.808;4.402;2023-04-01T09:41:36;11.70;99.90
41876;DHT22;27555;50.808;4.402;2023-04-01T09:50:35;11.80;99.90
41876;DHT22;27555;50.808;4.402;2023-04-01T09:53:11;11.90;99.90
41876;DHT22;27555;50.808;4.402;2023-04-01T10:00:55;12.20;99.90
41876;DHT22;27555;50.808;4.402;2023-04-01T10:31:54;12.20;99.90
41876;DHT22;27555;50.808;4.402;2023-04-01T10:40:52;11.90;99.90
41876;DHT22;27555;50.808;4.402;2023-04-01T10:43:52;11.60;99.90
41876;DHT22;27555;50.808;4.402;2023-04-01T11:26:44;12.80;99.90
41876;DHT22;27555;50.808;4.402;2023-04-01T11:38:29;12.30;99.90
41876;DHT22;27555;50.808;4.402;2023-04-01T11:43:43;12.10;99.90
41876;DHT22;27555;50.808;4.402;2023-04-01T11:46:31;12.60;99.90
41876;DHT22;27555;50.808;4.402;2023-04-01T11:55:14;12.40;99.90
41876;DHT22;27555;50.808;4.402;2023-04-01T12:13:37;12.80;99.90
41876;DHT22;27555;50.808;4.402;2023-04-01T12:19:03;12.40;99.90
41876;DHT22;27555;50.808;4.402;2023-04-01T12:21:38;12.30;99.90
41876;DHT22;27555;50.808;4.402;2023-04-01T12:32:52;11.90;99.90
41876;DHT22;27555;50.808;4.402;2023-04-01T12:38:38;11.60;99.90
41876;DHT22;27555;50.808;4.402;2023-04-01T12:41:46;11.70;99.90
41876;DHT22;27555;50.808;4.402;2023-04-01T12:46:50;12.10;99.90
41876;DHT22;27555;50.808;4.402;2023-04-01T12:52:03;12.00;99.90
41876;DHT22;27555;50.808;4.402;2023-04-01T12:54:59;12.20;99.90
41876;DHT22;27555;50.808;4.402;2023-04-01T13:08:51;11.40;99.90
41876;DHT22;27555;50.808;4.402;2023-04-01T13:16:37;11.30;99.90
41876;DHT22;27555;50.808;4.402;2023-04-01T13:19:20;10.90;99.90
41876;DHT22;27555;50.808;4.402;2023-04-01T13:24:26;11.20;99.90
41876;DHT22;27555;50.808;4.402;2023-04-01T13:27:08;11.00;99.90
41876;DHT22;27555;50.808;4.402;2023-04-01T13:32:54;11.10;99.90
41876;DHT22;27555;50.808;4.402;2023-04-01T13:43:33;11.90;99.90
41876;DHT22;27555;50.808;4.402;2023-04-01T13:46:34;11.80;99.90
41876;DHT22;27555;50.808;4.402;2023-04-01T13:49:27;12.10;99.90
41876;DHT22;27555;50.808;4.402;2023-04-01T13:52:06;11.50;99.90
41876;DHT22;27555;50.808;4.402;2023-04-01T13:55:04;11.50;99.90
41876;DHT22;27555;50.808;4.402;2023-04-01T14:03:17;11.80;99.90
41876;DHT22;27555;50.808;4.402;2023-04-01T14:11:27;11.50;99.90
41876;DHT22;27555;50.808;4.402;2023-04-01T14:14:18;11.70;99.90
41876;DHT22;27555;50.808;4.402;2023-04-01T14:17:01;11.60;99.90
41876;DHT22;27555;50.808;4.402;2023-04-01T14:19:55;11.80;99.90
41876;DHT22;27555;50.808;4.402;2023-04-01T14:28:23;12.30;99.90
41876;DHT22;27555;50.808;4.402;2023-04-01T14:34:04;11.80;99.90
41876;DHT22;27555;50.808;4.402;2023-04-01T14:42:55;11.90;99.90
41876;DHT22;27555;50.808;4.402;2023-04-01T14:48:51;11.80;99.90
41876;DHT22;27555;50.808;4.402;2023-04-01T14:51:33;11.90;99.90
41876;DHT22;27555;50.808;4.402;2023-04-01T14:56:38;11.70;99.90
41876;DHT22;27555;50.808;4.402;2023-04-01T14:59:14;12.00;99.90
41876;DHT22;27555;50.808;4.402;2023-04-01T15:01:47;11.90;99.90
41876;DHT22;27555;50.808;4.402;2023-04-01T15:18:08;11.70;99.90
41876;DHT22;27555;50.808;4.402;2023-04-01T15:23:25;11.50;99.90
41876;DHT22;27555;50.808;4.402;2023-04-01T15:40:07;11.70;99.90
41876;DHT22;27555;50.808;4.402;2023-04-01T15:59:34;11.60;99.90
41876;DHT22;27555;50.808;4.402;2023-04-01T16:04:54;11.40;99.90
41876;DHT22;27555;50.808;4.402;2023-04-01T16:19:18;11.10;99.90
41876;DHT22;27555;50.808;4.402;2023-04-01T16:21:53;10.90;99.90
41876;DHT22;27555;50.808;4.402;2023-04-01T16:24:53;10.60;99.90
41876;DHT22;27555;50.808;4.402;2023-04-01T16:27:40;10.50;99.90
41876;DHT22;27555;50.808;4.402;2023-04-01T16:33:21;10.90;99.90
41876;DHT22;27555;50.808;4.402;2023-04-01T16:39:07;11.30;99.90
41876;DHT22;27555;50.808;4.402;2023-04-01T16:41:46;11.20;99.90
41876;DHT22;27555;50.808;4.402;2023-04-01T16:44:26;10.70;99.90
41876;DHT22;27555;50.808;4.402;2023-04-01T16:46:55;10.80;99.90
41876;DHT22;27555;50.808;4.402;2023-04-01T16:49:49;11.10;99.90
41876;DHT22;27555;50.808;4.402;2023-04-01T16:52:34;11.00;99.90
41876;DHT22;27555;50.808;4.402;2023-04-01T16:55:08;10.50;99.90
41876;DHT22;27555;50.808;4.402;2023-04-01T16:58:06;10.80;99.90
41876;DHT22;27555;50.808;4.402;2023-04-01T17:00:37;10.60;99.90
41876;DHT22;27555;50.808;4.402;2023-04-01T17:03:13;10.70;99.90
41876;DHT22;27555;50.808;4.402;2023-04-01T17:06:07;10.50;99.90
41876;DHT22;27555;50.808;4.402;2023-04-01T17:11:49;10.90;99.90
41876;DHT22;27555;50.808;4.402;2023-04-01T17:14:38;11.00;99.90
41876;DHT22;27555;50.808;4.402;2023-04-01T17:17:24;11.10;99.90
41876;DHT22;27555;50.808;4.402;2023-04-01T17:20:31;10.50;99.90
41876;DHT22;27555;50.808;4.402;2023-04-01T17:31:12;10.30;99.90
41876;DHT22;27555;50.808;4.402;2023-04-01T17:33:51;10.30;99.90
41876;DHT22;27555;50.808;4.402;2023-04-01T17:36:26;10.70;99.90
41876;DHT22;27555;50.808;4.402;2023-04-01T17:39:07;11.00;99.90
41876;DHT22;27555;50.808;4.402;2023-04-01T17:41:52;10.80;99.90
41876;DHT22;27555;50.808;4.402;2023-04-01T17:49:42;10.70;99.90
41876;DHT22;27555;50.808;4.402;2023-04-01T17:52:20;10.60;99.90
41876;DHT22;27555;50.808;4.402;2023-04-01T17:55:15;10.90;99.90
41876;DHT22;27555;50.808;4.402;2023-04-01T18:01:12;10.80;99.90
41876;DHT22;27555;50.808;4.402;2023-04-01T18:06:21;10.90;99.90
41876;DHT22;27555;50.808;4.402;2023-04-01T18:11:44;10.90;99.90
41876;DHT22;27555;50.808;4.402;2023-04-01T18:25:32;10.70;99.90
41876;DHT22;27555;50.808;4.402;2023-04-01T18:30:32;10.70;99.90
41876;DHT22;27555;50.808;4.402;2023-04-01T18:33:25;10.60;99.90
41876;DHT22;27555;50.808;4.402;2023-04-01T18:38:44;10.70;99.90
41876;DHT22;27555;50.808;4.402;2023-04-01T18:44:46;10.90;99.90
41876;DHT22;27555;50.808;4.402;2023-04-01T18:47:26;10.60;99.90
41876;DHT22;27555;50.808;4.402;2023-04-01T18:53:39;10.70;99.90
41876;DHT22;27555;50.808;4.402;2023-04-01T18:56:08;10.80;99.90
41876;DHT22;27555;50.808;4.402;2023-04-01T18:58:37;10.60;99.90
41876;DHT22;27555;50.808;4.402;2023-04-01T19:01:19;10.10;99.90
41876;DHT22;27555;50.808;4.402;2023-04-01T19:04:04;10.10;99.90
41876;DHT22;27555;50.808;4.402;2023-04-01T19:09:25;10.20;99.90
41876;DHT22;27555;50.808;4.402;2023-04-01T19:25:55;10.30;99.90
41876;DHT22;27555;50.808;4.402;2023-04-01T19:30:53;10.10;99.90
41876;DHT22;27555;50.808;4.402;2023-04-01T19:38:54;10.50;99.90
41876;DHT22;27555;50.808;4.402;2023-04-01T19:46:46;9.60;99.90
41876;DHT22;27555;50.808;4.402;2023-04-01T19:49:49;9.60;99.90
41876;DHT22;27555;50.808;4.402;2023-04-01T19:52:39;9.60;99.90
41876;DHT22;27555;50.808;4.402;2023-04-01T19:55:42;9.40;99.90
41876;DHT22;27555;50.808;4.402;2023-04-01T19:58:16;9.80;99.90
41876;DHT22;27555;50.808;4.402;2023-04-01T20:00:48;10.00;99.90
41876;DHT22;27555;50.808;4.402;2023-04-01T20:14:58;10.60;99.90
41876;DHT22;27555;50.808;4.402;2023-04-01T20:20:03;10.30;99.90
41876;DHT22;27555;50.808;4.402;2023-04-01T20:36:23;10.50;99.90
41876;DHT22;27555;50.808;4.402;2023-04-01T20:44:14;10.60;99.90
41876;DHT22;27555;50.808;4.402;2023-04-01T20:57:45;10.00;99.90
41876;DHT22;27555;50.808;4.402;2023-04-01T21:08:53;10.70;99.90
41876;DHT22;27555;50.808;4.402;2023-04-01T21:11:41;10.30;99.90
41876;DHT22;27555;50.808;4.402;2023-04-01T21:17:04;10.10;99.90
41876;DHT22;27555;50.808;4.402;2023-04-01T21:19:45;10.60;99.90
41876;DHT22;27555;50.808;4.402;2023-04-01T21:25:21;10.40;99.90
41876;DHT22;27555;50.808;4.402;2023-04-01T21:47:44;10.30;99.90
41876;DHT22;27555;50.808;4.402;2023-04-01T21:55:50;10.50;99.90
41876;DHT22;27555;50.808;4.402;2023-04-01T22:12:30;10.60;99.90
41876;DHT22;27555;50.808;4.402;2023-04-01T22:20:34;10.70;99.90
41876;DHT22;27555;50.808;4.402;2023-04-01T22:23:26;10.80;99.90
41876;DHT22;27555;50.808;4.402;2023-04-01T22:31:27;10.30;99.90
41876;DHT22;27555;50.808;4.402;2023-04-01T22:42:09;10.30;99.90
41876;DHT22;27555;50.808;4.402;2023-04-01T22:47:43;9.80;99.90
41876;DHT22;27555;50.808;4.402;2023-04-01T22:55:52;9.70;99.90
41876;DHT22;27555;50.808;4.402;2023-04-01T22:58:30;9.70;99.90
41876;DHT22;27555;50.808;4.402;2023-04-01T23:01:01;9.60;99.90
41876;DHT22;27555;50.808;4.402;2023-04-01T23:03:33;9.60;99.90
41876;DHT22;27555;50.808;4.402;2023-04-01T23:06:01;9.60;99.90
41876;DHT22;27555;50.808;4.402;2023-04-01T23:22:47;10.00;99.90
41876;DHT22;27555;50.808;4.402;2023-04-01T23:28:19;9.70;99.90
41876;DHT22;27555;50.808;4.402;2023-04-01T23:30:51;9.80;99.90
41876;DHT22;27555;50.808;4.402;2023-04-01T23:33:22;9.70;99.90
41876;DHT22;27555;50.808;4.402;2023-04-01T23:38:24;9.80;99.90
41876;DHT22;27555;50.808;4.402;2023-04-01T23:40:52;9.70;99.90
41876;DHT22;27555;50.808;4.402;2023-04-01T23:43:28;9.70;99.90
41876;DHT22;27555;50.808;4.402;2023-04-01T23:45:57;9.60;99.90
41876;DHT22;27555;50.808;4.402;2023-04-01T23:48:32;9.50;99.90
41876;DHT22;27555;50.808;4.402;2023-04-01T23:50:58;9.40;99.90
41876;DHT22;27555;50.808;4.402;2023-04-01T23:53:25;9.30;99.90
41876;DHT22;27555;50.808;4.402;2023-04-01T23:55:52;9.30;99.90
